createdAt,value
2019-06-15T00:00:13.500Z,19.12
2019-06-15T00:01:13.693Z,19.10
2019-06-15T00:02:13.315Z,19.09
2019-06-15T00:03:13.264Z,19.09
2019-06-15T00:04:13.188Z,19.08
2019-06-15T00:05:12.969Z,19.08
2019-06-15T00:06:12.980Z,19.07
2019-06-15T00:07:13.015Z,19.07
2019-06-15T00:08:13.032Z,19.07
2019-06-15T00:09:13.014Z,19.08
2019-06-15T00:10:12.992Z,19.07
2019-06-15T00:11:13.033Z,19.08
2019-06-15T00:12:12.960Z,19.09
2019-06-15T00:13:12.973Z,19.09
2019-06-15T00:14:12.965Z,19.10
2019-06-15T00:15:12.888Z,19.10
2019-06-15T00:16:12.925Z,19.10
2019-06-15T00:17:12.889Z,19.10
2019-06-15T00:18:12.908Z,19.11
2019-06-15T00:19:12.838Z,19.11
2019-06-15T00:20:12.810Z,19.11
2019-06-15T00:21:12.820Z,19.12
2019-06-15T00:22:12.870Z,19.12
2019-06-15T00:23:12.797Z,19.10
2019-06-15T00:24:12.845Z,19.09
2019-06-15T00:25:12.964Z,19.07
2019-06-15T00:26:12.756Z,19.09
2019-06-15T00:27:12.870Z,19.10
2019-06-15T00:28:12.781Z,19.09
2019-06-15T00:29:12.757Z,19.08
2019-06-15T00:30:12.834Z,19.08
2019-06-15T00:31:12.793Z,19.08
2019-06-15T00:32:12.725Z,19.08
2019-06-15T00:33:12.857Z,19.07
2019-06-15T00:34:12.785Z,19.08
2019-06-15T00:35:12.701Z,19.09
2019-06-15T00:36:12.633Z,19.09
2019-06-15T00:37:12.650Z,19.09
2019-06-15T00:38:12.778Z,19.08
2019-06-15T00:39:12.775Z,19.07
2019-06-15T00:40:12.657Z,19.07
2019-06-15T00:41:12.783Z,19.06
2019-06-15T00:42:12.567Z,19.05
2019-06-15T00:43:12.615Z,19.06
2019-06-15T00:44:12.582Z,19.07
2019-06-15T00:45:12.529Z,19.06
2019-06-15T00:46:12.606Z,19.07
2019-06-15T00:47:12.538Z,19.07
2019-06-15T00:48:12.586Z,19.08
2019-06-15T00:49:12.568Z,19.09
2019-06-15T00:50:12.539Z,19.09
2019-06-15T00:51:12.508Z,19.06
2019-06-15T00:52:12.484Z,19.03
2019-06-15T00:53:12.516Z,19.02
2019-06-15T00:54:12.464Z,19.00
2019-06-15T00:55:12.435Z,18.98
2019-06-15T00:56:12.434Z,18.95
2019-06-15T00:57:12.944Z,18.95
2019-06-15T00:58:12.468Z,18.94
2019-06-15T00:59:12.401Z,18.95
2019-06-15T01:00:12.368Z,18.97
2019-06-15T01:01:12.498Z,18.97
2019-06-15T01:02:12.348Z,18.98
2019-06-15T01:03:12.536Z,18.98
2019-06-15T01:04:12.349Z,18.98
2019-06-15T01:05:13.409Z,19.00
2019-06-15T01:06:12.321Z,19.00
2019-06-15T01:07:12.438Z,19.01
2019-06-15T01:08:12.425Z,19.02
2019-06-15T01:09:12.371Z,19.02
2019-06-15T01:10:12.374Z,19.02
2019-06-15T01:11:12.329Z,19.03
2019-06-15T01:12:12.286Z,19.02
2019-06-15T01:13:12.290Z,19.00
2019-06-15T01:14:12.271Z,18.99
2019-06-15T01:15:12.277Z,18.98
2019-06-15T01:16:12.284Z,18.97
2019-06-15T01:17:12.195Z,18.96
2019-06-15T01:18:12.187Z,18.94
2019-06-15T01:19:12.301Z,18.92
2019-06-15T01:20:12.259Z,18.90
2019-06-15T01:21:12.215Z,18.88
2019-06-15T01:22:12.164Z,18.86
2019-06-15T01:23:12.141Z,18.86
2019-06-15T01:24:12.158Z,18.86
2019-06-15T01:25:12.182Z,18.85
2019-06-15T01:26:12.160Z,18.85
2019-06-15T01:27:12.137Z,18.84
2019-06-15T01:28:12.188Z,18.85
2019-06-15T01:29:12.140Z,18.85
2019-06-15T01:30:12.071Z,18.85
2019-06-15T01:31:12.034Z,18.85
2019-06-15T01:32:12.061Z,18.84
2019-06-15T01:33:12.040Z,18.83
2019-06-15T01:34:12.036Z,18.83
2019-06-15T01:35:12.570Z,18.81
2019-06-15T01:36:12.008Z,18.80
2019-06-15T01:37:11.978Z,18.80
2019-06-15T01:38:12.024Z,18.79
2019-06-15T01:39:11.984Z,18.79
2019-06-15T01:40:11.962Z,18.78
2019-06-15T01:41:11.990Z,18.78
2019-06-15T01:42:11.964Z,18.79
2019-06-15T01:43:11.916Z,18.80
2019-06-15T01:44:11.944Z,18.81
2019-06-15T01:45:12.136Z,18.80
2019-06-15T01:46:11.909Z,18.82
2019-06-15T01:47:11.883Z,18.81
2019-06-15T01:48:11.924Z,18.81
2019-06-15T01:49:11.871Z,18.80
2019-06-15T01:50:11.927Z,18.80
2019-06-15T01:51:11.881Z,18.79
2019-06-15T01:52:11.886Z,18.79
2019-06-15T01:53:11.840Z,18.78
2019-06-15T01:54:11.842Z,18.76
2019-06-15T01:55:20.372Z,18.75
2019-06-15T01:56:12.880Z,18.75
2019-06-15T01:57:11.853Z,18.73
2019-06-15T01:58:11.833Z,18.71
2019-06-15T01:59:11.735Z,18.69
2019-06-15T02:00:11.762Z,18.67
2019-06-15T02:01:11.778Z,18.64
2019-06-15T02:02:11.730Z,18.63
2019-06-15T02:03:11.771Z,18.61
2019-06-15T02:04:11.674Z,18.59
2019-06-15T02:05:11.785Z,18.56
2019-06-15T02:06:11.798Z,18.54
2019-06-15T02:07:11.710Z,18.53
2019-06-15T02:08:11.738Z,18.53
2019-06-15T02:09:12.004Z,18.52
2019-06-15T02:10:11.666Z,18.51
2019-06-15T02:11:11.674Z,18.50
2019-06-15T02:12:11.658Z,18.49
2019-06-15T02:13:11.638Z,18.47
2019-06-15T02:14:11.591Z,18.45
2019-06-15T02:15:12.125Z,18.42
2019-06-15T02:16:11.546Z,18.39
2019-06-15T02:17:11.603Z,18.36
2019-06-15T02:18:11.545Z,18.35
2019-06-15T02:19:11.574Z,18.33
2019-06-15T02:20:11.654Z,18.31
2019-06-15T02:21:11.520Z,18.30
2019-06-15T02:22:11.505Z,18.29
2019-06-15T02:23:11.550Z,18.27
2019-06-15T02:24:11.526Z,18.24
2019-06-15T02:25:11.900Z,18.22
2019-06-15T02:26:11.477Z,18.21
2019-06-15T02:27:11.540Z,18.19
2019-06-15T02:28:11.490Z,18.18
2019-06-15T02:29:11.413Z,18.16
2019-06-15T02:30:11.432Z,18.13
2019-06-15T02:31:11.431Z,18.11
2019-06-15T02:32:11.429Z,18.10
2019-06-15T02:33:11.416Z,18.09
2019-06-15T02:34:11.361Z,18.07
2019-06-15T02:35:11.320Z,18.04
2019-06-15T02:36:11.343Z,18.03
2019-06-15T02:37:11.341Z,18.02
2019-06-15T02:38:11.429Z,18.01
2019-06-15T02:39:11.354Z,18.00
2019-06-15T02:40:11.386Z,18.00
2019-06-15T02:41:11.381Z,17.99
2019-06-15T02:42:11.328Z,17.98
2019-06-15T02:43:11.265Z,17.98
2019-06-15T02:44:11.269Z,17.98
2019-06-15T02:45:11.329Z,17.97
2019-06-15T02:46:11.253Z,17.98
2019-06-15T02:47:11.243Z,17.96
2019-06-15T02:48:11.363Z,17.96
2019-06-15T02:49:11.278Z,17.95
2019-06-15T02:50:11.226Z,17.92
2019-06-15T02:51:11.445Z,17.90
2019-06-15T02:52:11.209Z,17.88
2019-06-15T02:53:11.208Z,17.86
2019-06-15T02:54:11.201Z,17.84
2019-06-15T02:55:11.149Z,17.81
2019-06-15T02:56:11.528Z,17.80
2019-06-15T02:57:11.162Z,17.77
2019-06-15T02:58:11.128Z,17.77
2019-06-15T02:59:11.281Z,17.76
2019-06-15T03:00:11.112Z,17.76
2019-06-15T03:01:11.073Z,17.75
2019-06-15T03:02:11.415Z,17.74
2019-06-15T03:03:11.139Z,17.72
2019-06-15T03:04:11.170Z,17.71
2019-06-15T03:05:11.053Z,17.69
2019-06-15T03:06:11.004Z,17.69
2019-06-15T03:07:11.067Z,17.69
2019-06-15T03:08:11.148Z,17.66
2019-06-15T03:09:11.074Z,17.66
2019-06-15T03:10:11.033Z,17.65
2019-06-15T03:11:10.997Z,17.66
2019-06-15T03:12:11.094Z,17.66
2019-06-15T03:13:10.980Z,17.68
2019-06-15T03:14:11.562Z,17.71
2019-06-15T03:15:10.969Z,17.75
2019-06-15T03:16:10.928Z,17.78
2019-06-15T03:17:10.922Z,17.80
2019-06-15T03:18:10.926Z,17.84
2019-06-15T03:19:11.006Z,17.86
2019-06-15T03:20:10.867Z,17.89
2019-06-15T03:21:10.875Z,17.92
2019-06-15T03:22:10.873Z,17.96
2019-06-15T03:23:10.943Z,17.97
2019-06-15T03:24:10.836Z,18.00
2019-06-15T03:25:10.887Z,18.01
2019-06-15T03:26:10.838Z,18.02
2019-06-15T03:27:10.800Z,18.03
2019-06-15T03:28:10.777Z,18.06
2019-06-15T03:29:10.835Z,18.07
2019-06-15T03:30:10.784Z,18.10
2019-06-15T03:31:10.811Z,18.12
2019-06-15T03:32:11.123Z,18.15
2019-06-15T03:33:10.748Z,18.16
2019-06-15T03:34:10.754Z,18.17
2019-06-15T03:35:10.786Z,18.17
2019-06-15T03:36:10.738Z,18.17
2019-06-15T03:37:10.673Z,18.18
2019-06-15T03:38:10.683Z,18.20
2019-06-15T03:39:10.654Z,18.22
2019-06-15T03:40:10.765Z,18.27
2019-06-15T03:41:10.721Z,18.30
2019-06-15T03:42:10.657Z,18.33
2019-06-15T03:43:10.768Z,18.37
2019-06-15T03:44:10.661Z,18.43
2019-06-15T03:45:10.600Z,18.47
2019-06-15T03:46:10.730Z,18.50
2019-06-15T03:47:10.607Z,18.54
2019-06-15T03:48:10.553Z,18.58
2019-06-15T03:49:10.561Z,18.61
2019-06-15T03:50:10.589Z,18.63
2019-06-15T03:51:10.643Z,18.66
2019-06-15T03:52:10.540Z,18.67
2019-06-15T03:53:10.545Z,18.70
2019-06-15T03:54:10.566Z,18.75
2019-06-15T03:55:10.497Z,18.79
2019-06-15T03:56:21.035Z,18.83
2019-06-15T03:57:11.429Z,18.84
2019-06-15T03:58:10.491Z,18.86
2019-06-15T03:59:10.574Z,18.87
2019-06-15T04:00:10.465Z,18.86
2019-06-15T04:01:10.450Z,18.85
2019-06-15T04:02:10.441Z,18.82
2019-06-15T04:03:10.506Z,18.82
2019-06-15T04:04:10.464Z,18.82
2019-06-15T04:05:10.374Z,18.84
2019-06-15T04:06:10.442Z,18.88
2019-06-15T04:07:10.394Z,18.96
2019-06-15T04:08:10.375Z,19.03
2019-06-15T04:09:10.362Z,19.13
2019-06-15T04:10:10.366Z,19.23
2019-06-15T04:11:10.289Z,19.32
2019-06-15T04:12:10.342Z,19.40
2019-06-15T04:13:10.355Z,19.49
2019-06-15T04:14:10.299Z,19.57
2019-06-15T04:15:10.385Z,19.67
2019-06-15T04:16:10.230Z,19.74
2019-06-15T04:17:10.323Z,19.83
2019-06-15T04:18:10.233Z,19.89
2019-06-15T04:19:10.250Z,19.97
2019-06-15T04:20:10.423Z,20.01
2019-06-15T04:21:10.266Z,20.08
2019-06-15T04:22:10.258Z,20.11
2019-06-15T04:23:10.207Z,20.17
2019-06-15T04:24:10.235Z,20.22
2019-06-15T04:25:10.183Z,20.28
2019-06-15T04:26:10.151Z,20.33
2019-06-15T04:27:10.129Z,20.39
2019-06-15T04:28:10.217Z,20.46
2019-06-15T04:29:10.127Z,20.50
2019-06-15T04:30:10.178Z,20.56
2019-06-15T04:31:10.132Z,20.60
2019-06-15T04:32:10.129Z,20.65
2019-06-15T04:33:11.592Z,20.68
2019-06-15T04:34:10.828Z,20.72
2019-06-15T04:35:10.270Z,20.78
2019-06-15T04:36:10.039Z,20.81
2019-06-15T04:37:10.175Z,20.85
2019-06-15T04:38:10.084Z,20.88
2019-06-15T04:39:10.093Z,20.94
2019-06-15T04:40:10.056Z,20.98
2019-06-15T04:41:09.981Z,21.05
2019-06-15T04:42:09.973Z,21.12
2019-06-15T04:43:10.247Z,21.16
2019-06-15T04:44:11.424Z,21.20
2019-06-15T04:45:11.944Z,21.20
2019-06-15T04:46:10.063Z,21.23
2019-06-15T04:47:12.047Z,21.27
2019-06-15T04:48:10.618Z,21.31
2019-06-15T04:49:10.166Z,21.34
2019-06-15T04:50:11.645Z,21.34
2019-06-15T04:51:10.259Z,21.32
2019-06-15T04:52:10.025Z,21.28
2019-06-15T04:53:14.670Z,21.24
2019-06-15T04:54:10.068Z,21.22
2019-06-15T04:55:10.167Z,21.25
2019-06-15T04:56:15.623Z,21.33
2019-06-15T04:57:10.375Z,21.47
2019-06-15T04:58:11.151Z,21.63
2019-06-15T04:59:10.795Z,21.77
2019-06-15T05:00:11.438Z,21.93
2019-06-15T05:01:13.251Z,22.05
2019-06-15T05:02:11.552Z,22.18
2019-06-15T05:03:11.433Z,22.27
2019-06-15T05:04:12.117Z,22.35
2019-06-15T05:05:12.759Z,22.40
2019-06-15T05:06:11.283Z,22.47
2019-06-15T05:07:10.246Z,22.53
2019-06-15T05:08:10.122Z,22.53
2019-06-15T05:09:11.065Z,22.51
2019-06-15T05:10:11.248Z,22.48
2019-06-15T05:11:11.078Z,22.43
2019-06-15T05:12:09.939Z,22.39
2019-06-15T05:13:10.474Z,22.39
2019-06-15T05:14:12.168Z,22.41
2019-06-15T05:15:10.371Z,22.42
2019-06-15T05:16:10.278Z,22.38
2019-06-15T05:17:11.904Z,22.29
2019-06-15T05:18:13.468Z,22.20
2019-06-15T05:19:10.646Z,22.09
2019-06-15T05:20:09.635Z,22.01
2019-06-15T05:21:09.721Z,21.94
2019-06-15T05:22:09.503Z,21.87
2019-06-15T05:23:09.505Z,21.81
2019-06-15T05:24:09.716Z,21.80
2019-06-15T05:25:09.471Z,21.80
2019-06-15T05:26:09.464Z,21.80
2019-06-15T05:27:09.451Z,21.82
2019-06-15T05:28:09.451Z,21.85
2019-06-15T05:29:10.087Z,21.87
2019-06-15T05:30:09.438Z,21.90
2019-06-15T05:31:09.404Z,21.94
2019-06-15T05:32:09.520Z,22.00
2019-06-15T05:33:09.396Z,22.13
2019-06-15T05:34:09.401Z,22.29
2019-06-15T05:35:09.435Z,22.42
2019-06-15T05:36:09.366Z,22.47
2019-06-15T05:37:09.364Z,22.48
2019-06-15T05:38:09.561Z,22.45
2019-06-15T05:39:09.347Z,22.40
2019-06-15T05:40:09.315Z,22.36
2019-06-15T05:41:09.308Z,22.33
2019-06-15T05:42:09.298Z,22.28
2019-06-15T05:43:09.284Z,22.22
2019-06-15T05:44:09.260Z,22.14
2019-06-15T05:45:10.967Z,22.07
2019-06-15T05:46:09.465Z,22.04
2019-06-15T05:47:09.516Z,22.00
2019-06-15T05:48:09.420Z,22.00
2019-06-15T05:49:09.593Z,22.10
2019-06-15T05:50:09.188Z,22.25
2019-06-15T05:51:09.358Z,22.48
2019-06-15T05:52:09.446Z,22.70
2019-06-15T05:53:10.685Z,22.88
2019-06-15T05:54:09.284Z,22.97
2019-06-15T05:55:09.264Z,23.03
2019-06-15T05:56:09.168Z,23.10
2019-06-15T05:57:20.838Z,23.15
2019-06-15T05:58:11.052Z,23.26
2019-06-15T05:59:09.293Z,23.40
2019-06-15T06:00:09.173Z,23.51
2019-06-15T06:01:09.195Z,23.60
2019-06-15T06:02:09.200Z,23.67
2019-06-15T06:03:09.293Z,23.75
2019-06-15T06:04:09.091Z,23.87
2019-06-15T06:05:09.115Z,23.97
2019-06-15T06:06:09.206Z,24.07
2019-06-15T06:07:09.067Z,24.13
2019-06-15T06:08:09.316Z,24.12
2019-06-15T06:09:08.978Z,24.08
2019-06-15T06:10:10.965Z,24.05
2019-06-15T06:11:09.047Z,24.08
2019-06-15T06:12:09.078Z,24.13
2019-06-15T06:13:09.164Z,24.29
2019-06-15T06:14:09.000Z,24.55
2019-06-15T06:15:09.080Z,24.77
2019-06-15T06:16:09.317Z,24.83
2019-06-15T06:17:08.940Z,24.86
2019-06-15T06:18:08.908Z,24.90
2019-06-15T06:19:08.938Z,24.99
2019-06-15T06:20:08.901Z,25.07
2019-06-15T06:21:08.875Z,25.15
2019-06-15T06:22:08.897Z,25.22
2019-06-15T06:23:10.369Z,25.32
2019-06-15T06:24:09.187Z,25.41
2019-06-15T06:25:09.003Z,25.54
2019-06-15T06:26:08.898Z,25.71
2019-06-15T06:27:08.802Z,25.86
2019-06-15T06:28:08.839Z,26.04
2019-06-15T06:29:08.836Z,26.13
2019-06-15T06:30:08.860Z,26.20
2019-06-15T06:31:08.781Z,26.22
2019-06-15T06:32:08.791Z,26.33
2019-06-15T06:33:08.758Z,26.34
2019-06-15T06:34:08.787Z,26.42
2019-06-15T06:35:08.853Z,26.51
2019-06-15T06:36:08.907Z,26.63
2019-06-15T06:37:08.744Z,26.57
2019-06-15T06:38:08.746Z,26.43
2019-06-15T06:39:08.732Z,26.25
2019-06-15T06:40:08.979Z,26.06
2019-06-15T06:41:08.840Z,25.88
2019-06-15T06:42:08.655Z,25.68
2019-06-15T06:43:08.610Z,25.48
2019-06-15T06:44:08.611Z,25.22
2019-06-15T06:45:08.611Z,24.99
2019-06-15T06:46:09.059Z,24.86
2019-06-15T06:47:08.581Z,24.82
2019-06-15T06:48:08.582Z,24.78
2019-06-15T06:49:08.575Z,24.69
2019-06-15T06:50:08.538Z,24.62
2019-06-15T06:51:08.902Z,24.49
2019-06-15T06:52:08.952Z,24.22
2019-06-15T06:53:08.696Z,23.95
2019-06-15T06:54:08.643Z,23.82
2019-06-15T06:55:08.801Z,23.73
2019-06-15T06:56:08.496Z,23.67
2019-06-15T06:57:08.462Z,23.71
2019-06-15T06:58:08.462Z,23.79
2019-06-15T06:59:08.671Z,23.81
2019-06-15T07:00:08.550Z,23.77
2019-06-15T07:01:08.606Z,23.62
2019-06-15T07:02:08.471Z,23.60
2019-06-15T07:03:08.498Z,23.57
2019-06-15T07:04:08.674Z,23.55
2019-06-15T07:05:08.919Z,23.60
2019-06-15T07:06:08.368Z,23.66
2019-06-15T07:07:08.382Z,23.71
2019-06-15T07:08:08.394Z,23.77
2019-06-15T07:09:08.361Z,23.76
2019-06-15T07:10:08.329Z,23.73
2019-06-15T07:11:08.365Z,23.72
2019-06-15T07:12:08.322Z,23.60
2019-06-15T07:13:08.332Z,23.45
2019-06-15T07:14:08.358Z,23.25
2019-06-15T07:15:08.275Z,23.05
2019-06-15T07:16:08.308Z,22.86
2019-06-15T07:17:08.269Z,22.66
2019-06-15T07:18:08.589Z,22.47
2019-06-15T07:19:09.094Z,22.25
2019-06-15T07:20:08.399Z,22.08
2019-06-15T07:21:08.531Z,21.96
2019-06-15T07:22:08.256Z,21.91
2019-06-15T07:23:08.204Z,21.87
2019-06-15T07:24:08.164Z,21.79
2019-06-15T07:25:08.272Z,21.69
2019-06-15T07:26:08.267Z,21.60
2019-06-15T07:27:08.158Z,21.50
2019-06-15T07:28:08.693Z,21.43
2019-06-15T07:29:08.303Z,21.37
2019-06-15T07:30:10.266Z,21.28
2019-06-15T07:31:08.103Z,21.20
2019-06-15T07:32:08.092Z,21.14
2019-06-15T07:33:08.083Z,21.12
2019-06-15T07:34:08.076Z,21.12
2019-06-15T07:35:08.076Z,21.12
2019-06-15T07:36:08.052Z,21.12
2019-06-15T07:37:08.026Z,21.13
2019-06-15T07:38:09.214Z,21.14
2019-06-15T07:39:09.059Z,21.17
2019-06-15T07:40:09.400Z,21.22
2019-06-15T07:41:08.033Z,21.24
2019-06-15T07:42:08.188Z,21.30
2019-06-15T07:43:07.973Z,21.30
2019-06-15T07:44:08.233Z,21.25
2019-06-15T07:45:08.042Z,21.23
2019-06-15T07:46:07.981Z,21.21
2019-06-15T07:47:07.915Z,21.21
2019-06-15T07:48:07.971Z,21.17
2019-06-15T07:49:07.914Z,21.14
2019-06-15T07:50:07.880Z,21.12
2019-06-15T07:51:07.887Z,21.10
2019-06-15T07:52:07.887Z,21.07
2019-06-15T07:53:07.878Z,21.06
2019-06-15T07:54:07.854Z,21.02
2019-06-15T07:55:07.881Z,20.95
2019-06-15T07:56:07.845Z,20.91
2019-06-15T07:57:07.850Z,21.19
2019-06-15T07:58:23.385Z,21.53
2019-06-15T07:59:08.811Z,21.78
2019-06-15T08:00:07.792Z,22.04
2019-06-15T08:01:07.807Z,22.18
2019-06-15T08:02:07.750Z,22.20
2019-06-15T08:03:07.904Z,22.16
2019-06-15T08:04:07.746Z,22.19
2019-06-15T08:05:07.715Z,22.28
2019-06-15T08:06:07.744Z,22.42
2019-06-15T08:07:07.715Z,22.43
2019-06-15T08:08:07.732Z,22.38
2019-06-15T08:09:07.672Z,22.28
2019-06-15T08:10:08.747Z,22.12
2019-06-15T08:11:07.714Z,21.96
2019-06-15T08:12:07.680Z,21.85
2019-06-15T08:13:07.653Z,21.87
2019-06-15T08:14:07.641Z,21.86
2019-06-15T08:15:07.623Z,21.78
2019-06-15T08:16:07.650Z,21.68
2019-06-15T08:17:07.610Z,21.64
2019-06-15T08:18:09.693Z,21.66
2019-06-15T08:19:07.742Z,21.77
2019-06-15T08:20:07.605Z,22.04
2019-06-15T08:21:07.590Z,22.46
2019-06-15T08:22:07.526Z,23.08
2019-06-15T08:23:07.530Z,23.90
2019-06-15T08:24:07.570Z,24.39
2019-06-15T08:25:07.505Z,24.73
2019-06-15T08:26:07.540Z,24.99
2019-06-15T08:27:07.488Z,25.42
2019-06-15T08:28:07.480Z,25.96
2019-06-15T08:29:07.464Z,26.66
2019-06-15T08:30:07.460Z,28.04
2019-06-15T08:31:07.437Z,30.16
2019-06-15T08:32:07.467Z,33.09
2019-06-15T08:33:07.435Z,34.50
2019-06-15T08:34:08.614Z,37.01
2019-06-15T08:35:07.398Z,37.21
2019-06-15T08:36:07.406Z,37.62
2019-06-15T08:37:07.376Z,36.04
2019-06-15T08:38:07.413Z,34.93
2019-06-15T08:39:07.374Z,33.91
2019-06-15T08:40:07.349Z,33.39
2019-06-15T08:41:07.325Z,32.24
2019-06-15T08:42:07.365Z,32.65
2019-06-15T08:43:07.347Z,34.08
2019-06-15T08:44:08.803Z,34.56
2019-06-15T08:45:07.495Z,33.31
2019-06-15T08:46:07.373Z,36.90
2019-06-15T08:47:07.316Z,34.69
2019-06-15T08:48:07.431Z,33.13
2019-06-15T08:49:07.349Z,34.96
2019-06-15T08:50:07.250Z,38.16
2019-06-15T08:51:07.270Z,41.14
2019-06-15T08:52:07.260Z,43.31
2019-06-15T08:53:07.296Z,44.18
2019-06-15T08:54:07.326Z,43.62
2019-06-15T08:55:07.319Z,46.14
2019-06-15T08:56:07.260Z,47.21
2019-06-15T08:57:07.345Z,44.95
2019-06-15T08:58:07.263Z,42.84
2019-06-15T08:59:07.311Z,40.58
2019-06-15T09:00:07.185Z,42.00
2019-06-15T09:01:07.127Z,40.09
2019-06-15T09:02:07.191Z,38.37
2019-06-15T09:03:07.222Z,39.48
2019-06-15T09:04:07.146Z,37.97
2019-06-15T09:05:07.097Z,36.45
2019-06-15T09:06:07.160Z,35.30
2019-06-15T09:07:07.186Z,34.73
2019-06-15T09:08:07.197Z,37.65
2019-06-15T09:09:07.222Z,37.60
2019-06-15T09:10:07.063Z,40.76
2019-06-15T09:11:07.035Z,44.94
2019-06-15T09:12:07.100Z,48.27
2019-06-15T09:13:07.126Z,50.35
2019-06-15T09:14:07.073Z,51.72
2019-06-15T09:15:06.999Z,48.97
2019-06-15T09:16:07.095Z,45.23
2019-06-15T09:17:07.054Z,42.69
2019-06-15T09:18:07.009Z,40.93
2019-06-15T09:19:07.117Z,38.64
2019-06-15T09:20:06.963Z,36.73
2019-06-15T09:21:07.073Z,35.05
2019-06-15T09:22:06.931Z,33.67
2019-06-15T09:23:06.938Z,32.66
2019-06-15T09:24:06.938Z,32.01
2019-06-15T09:25:07.211Z,31.58
2019-06-15T09:26:06.931Z,31.07
2019-06-15T09:27:06.947Z,30.52
2019-06-15T09:28:06.893Z,30.08
2019-06-15T09:29:11.197Z,29.72
2019-06-15T09:30:07.096Z,29.39
2019-06-15T09:31:06.899Z,28.96
2019-06-15T09:32:07.033Z,28.46
2019-06-15T09:33:06.856Z,27.97
2019-06-15T09:34:18.616Z,27.55
2019-06-15T09:35:07.822Z,27.19
2019-06-15T09:36:06.919Z,26.87
2019-06-15T09:37:06.815Z,26.54
2019-06-15T09:38:06.746Z,26.22
2019-06-15T09:39:06.792Z,25.98
2019-06-15T09:40:06.759Z,25.75
2019-06-15T09:41:06.712Z,25.52
2019-06-15T09:42:06.824Z,25.27
2019-06-15T09:43:06.809Z,25.04
2019-06-15T09:44:06.825Z,24.82
2019-06-15T09:45:06.723Z,24.63
2019-06-15T09:46:06.743Z,24.45
2019-06-15T09:47:06.874Z,24.27
2019-06-15T09:48:06.787Z,24.07
2019-06-15T09:49:06.816Z,23.89
2019-06-15T09:50:06.626Z,23.77
2019-06-15T09:51:06.671Z,23.62
2019-06-15T09:52:06.654Z,23.47
2019-06-15T09:53:06.703Z,23.35
2019-06-15T09:54:06.576Z,23.27
2019-06-15T09:55:06.559Z,23.21
2019-06-15T09:56:06.655Z,23.18
2019-06-15T09:57:06.720Z,23.06
2019-06-15T09:58:06.546Z,22.95
2019-06-15T09:59:06.548Z,22.84
2019-06-15T10:00:06.501Z,22.78
2019-06-15T10:01:06.544Z,22.76
2019-06-15T10:02:06.496Z,22.80
2019-06-15T10:03:06.574Z,22.94
2019-06-15T10:04:06.501Z,23.22
2019-06-15T10:05:06.482Z,23.63
2019-06-15T10:06:11.501Z,24.09
2019-06-15T10:07:07.555Z,24.52
2019-06-15T10:08:06.541Z,24.89
2019-06-15T10:09:06.573Z,25.17
2019-06-15T10:10:06.536Z,25.38
2019-06-15T10:11:06.546Z,25.63
2019-06-15T10:12:06.422Z,25.96
2019-06-15T10:13:06.395Z,26.34
2019-06-15T10:14:06.344Z,26.71
2019-06-15T10:15:06.393Z,27.20
2019-06-15T10:16:06.464Z,27.85
2019-06-15T10:17:06.401Z,28.63
2019-06-15T10:18:06.404Z,29.48
2019-06-15T10:19:06.358Z,30.31
2019-06-15T10:20:06.330Z,30.74
2019-06-15T10:21:06.362Z,30.93
2019-06-15T10:22:06.289Z,30.85
2019-06-15T10:23:06.283Z,30.84
2019-06-15T10:24:06.335Z,30.91
2019-06-15T10:25:06.232Z,31.02
2019-06-15T10:26:06.245Z,30.97
2019-06-15T10:27:06.216Z,30.67
2019-06-15T10:28:06.266Z,30.34
2019-06-15T10:29:06.279Z,29.98
2019-06-15T10:30:06.166Z,29.65
2019-06-15T10:31:06.237Z,29.40
2019-06-15T10:32:06.195Z,29.16
2019-06-15T10:33:06.165Z,29.09
2019-06-15T10:34:06.195Z,29.27
2019-06-15T10:35:06.208Z,29.69
2019-06-15T10:36:09.537Z,29.79
2019-06-15T10:37:06.136Z,29.96
2019-06-15T10:38:06.103Z,30.19
2019-06-15T10:39:06.141Z,29.71
2019-06-15T10:40:06.113Z,28.96
2019-06-15T10:41:06.094Z,28.32
2019-06-15T10:42:06.069Z,28.03
2019-06-15T10:43:06.083Z,28.09
2019-06-15T10:44:06.134Z,28.46
2019-06-15T10:45:06.013Z,28.67
2019-06-15T10:46:06.428Z,28.44
2019-06-15T10:47:06.091Z,28.24
2019-06-15T10:48:05.954Z,28.47
2019-06-15T10:49:05.949Z,29.06
2019-06-15T10:50:05.932Z,30.11
2019-06-15T10:51:05.926Z,32.05
2019-06-15T10:52:06.906Z,33.31
2019-06-15T10:53:05.919Z,34.46
2019-06-15T10:54:05.906Z,33.80
2019-06-15T10:55:05.976Z,36.99
2019-06-15T10:56:05.866Z,39.87
2019-06-15T10:57:05.901Z,42.31
2019-06-15T10:58:05.854Z,41.11
2019-06-15T10:59:05.989Z,39.47
2019-06-15T11:00:06.151Z,39.43
2019-06-15T11:01:05.830Z,38.30
2019-06-15T11:02:05.814Z,37.20
2019-06-15T11:03:05.818Z,36.43
2019-06-15T11:04:05.834Z,38.42
2019-06-15T11:05:05.827Z,41.49
2019-06-15T11:06:05.754Z,40.54
2019-06-15T11:07:05.797Z,41.94
2019-06-15T11:08:05.898Z,42.47
2019-06-15T11:09:06.667Z,42.99
2019-06-15T11:10:05.996Z,45.44
2019-06-15T11:11:05.729Z,46.38
2019-06-15T11:12:05.696Z,47.62
2019-06-15T11:13:05.692Z,50.10
2019-06-15T11:14:05.669Z,48.57
2019-06-15T11:15:05.671Z,50.95
2019-06-15T11:16:05.735Z,51.30
2019-06-15T11:17:05.667Z,53.43
2019-06-15T11:18:05.637Z,55.47
2019-06-15T11:19:05.637Z,53.38
2019-06-15T11:20:05.679Z,52.95
2019-06-15T11:21:05.594Z,49.72
2019-06-15T11:22:05.609Z,46.45
2019-06-15T11:23:05.621Z,44.33
2019-06-15T11:24:05.565Z,44.54
2019-06-15T11:25:05.586Z,46.56
2019-06-15T11:26:05.561Z,43.83
2019-06-15T11:27:05.539Z,41.55
2019-06-15T11:28:05.529Z,39.82
2019-06-15T11:29:05.542Z,41.06
2019-06-15T11:30:13.701Z,44.22
2019-06-15T11:31:06.487Z,43.66
2019-06-15T11:32:05.495Z,44.36
2019-06-15T11:33:05.494Z,43.92
2019-06-15T11:34:05.490Z,47.81
2019-06-15T11:35:05.459Z,51.09
2019-06-15T11:36:05.462Z,52.56
2019-06-15T11:37:05.440Z,50.01
2019-06-15T11:38:05.423Z,53.15
2019-06-15T11:39:05.438Z,55.27
2019-06-15T11:40:05.449Z,56.75
2019-06-15T11:41:05.384Z,53.51
2019-06-15T11:42:05.392Z,53.31
2019-06-15T11:43:05.373Z,55.82
2019-06-15T11:44:05.366Z,53.62
2019-06-15T11:45:05.381Z,53.74
2019-06-15T11:46:05.363Z,54.42
2019-06-15T11:47:05.357Z,55.88
2019-06-15T11:48:05.346Z,54.49
2019-06-15T11:49:05.329Z,56.59
2019-06-15T11:50:05.299Z,57.69
2019-06-15T11:51:05.308Z,58.77
2019-06-15T11:52:05.289Z,59.55
2019-06-15T11:53:05.279Z,60.13
2019-06-15T11:54:05.258Z,59.17
2019-06-15T11:55:05.263Z,53.55
2019-06-15T11:56:05.264Z,50.29
2019-06-15T11:57:05.242Z,52.66
2019-06-15T11:58:05.223Z,50.54
2019-06-15T11:59:05.214Z,54.24
2019-06-15T12:00:05.191Z,54.70
2019-06-15T12:01:05.200Z,51.37
2019-06-15T12:02:05.173Z,47.54
2019-06-15T12:03:05.169Z,44.70
2019-06-15T12:04:05.168Z,43.97
2019-06-15T12:05:05.158Z,41.52
2019-06-15T12:06:05.163Z,39.55
2019-06-15T12:07:05.151Z,38.65
2019-06-15T12:08:05.112Z,42.50
2019-06-15T12:09:05.106Z,46.91
2019-06-15T12:10:05.098Z,46.03
2019-06-15T12:11:05.082Z,43.18
2019-06-15T12:12:05.072Z,45.58
2019-06-15T12:13:05.076Z,49.13
2019-06-15T12:14:05.054Z,49.36
2019-06-15T12:15:05.032Z,48.31
2019-06-15T12:16:05.037Z,45.72
2019-06-15T12:17:05.051Z,49.38
2019-06-15T12:18:05.007Z,53.06
2019-06-15T12:19:05.025Z,52.55
2019-06-15T12:20:05.015Z,54.38
2019-06-15T12:21:04.978Z,55.72
2019-06-15T12:22:04.996Z,54.99
2019-06-15T12:23:04.957Z,57.33
2019-06-15T12:24:04.945Z,58.87
2019-06-15T12:25:04.954Z,57.13
2019-06-15T12:26:04.927Z,51.87
2019-06-15T12:27:04.923Z,48.01
2019-06-15T12:28:04.917Z,45.15
2019-06-15T12:29:07.695Z,42.92
2019-06-15T12:30:04.899Z,40.92
2019-06-15T12:31:04.885Z,39.24
2019-06-15T12:32:04.875Z,37.92
2019-06-15T12:33:04.878Z,36.98
2019-06-15T12:34:04.847Z,36.40
2019-06-15T12:35:04.827Z,36.19
2019-06-15T12:36:18.385Z,36.13
2019-06-15T12:37:05.817Z,35.87
2019-06-15T12:38:04.810Z,35.65
2019-06-15T12:39:04.816Z,41.63
2019-06-15T12:40:04.799Z,46.00
2019-06-15T12:41:04.771Z,49.05
2019-06-15T12:42:04.758Z,51.16
2019-06-15T12:43:04.761Z,52.88
2019-06-15T12:44:04.727Z,54.49
2019-06-15T12:45:04.766Z,53.72
2019-06-15T12:46:04.720Z,52.11
2019-06-15T12:47:04.698Z,54.53
2019-06-15T12:48:04.708Z,54.19
2019-06-15T12:49:04.720Z,50.48
2019-06-15T12:50:04.677Z,52.38
2019-06-15T12:51:04.671Z,49.72
2019-06-15T12:52:04.669Z,49.34